sensor_id;sensor_type;location;lat;lon;timestamp;pressure;altitude;pressure_sealevel;temperature;humidity
11710;BME280;5911;51.036;6.972;2022-10-31T00:01:25;101259.88;;;15.14;100.00
11710;BME280;5911;51.036;6.972;2022-10-31T00:03:54;101261.53;;;15.15;100.00
11710;BME280;5911;51.036;6.972;2022-10-31T00:06:25;101256.81;;;15.09;100.00
11710;BME280;5911;51.036;6.972;2022-10-31T00:09:04;101213.44;;;14.80;100.00
11710;BME280;5911;51.036;6.972;2022-10-31T00:11:32;101262.81;;;15.11;100.00
11710;BME280;5911;51.036;6.972;2022-10-31T00:14:00;101260.16;;;15.11;100.00
11710;BME280;5911;51.036;6.972;2022-10-31T00:16:29;101269.97;;;15.10;100.00
11710;BME280;5911;51.036;6.972;2022-10-31T00:18:59;101272.03;;;15.07;100.00
11710;BME280;5911;51.036;6.972;2022-10-31T00:21:29;101267.72;;;15.06;100.00
11710;BME280;5911;51.036;6.972;2022-10-31T00:23:57;101260.56;;;15.06;100.00
11710;BME280;5911;51.036;6.972;2022-10-31T00:26:26;101257.06;;;15.06;100.00
11710;BME280;5911;51.036;6.972;2022-10-31T00:28:54;101262.53;;;15.04;100.00
11710;BME280;5911;51.036;6.972;2022-10-31T00:31:22;101262.53;;;15.04;100.00
11710;BME280;5911;51.036;6.972;2022-10-31T00:33:50;101259.03;;;15.04;100.00
11710;BME280;5911;51.036;6.972;2022-10-31T00:36:19;101252.31;;;15.00;100.00
11710;BME280;5911;51.036;6.972;2022-10-31T00:38:48;101248.66;;;15.01;100.00
11710;BME280;5911;51.036;6.972;2022-10-31T00:41:17;101249.50;;;15.01;100.00
11710;BME280;5911;51.036;6.972;2022-10-31T00:43:45;101256.50;;;15.02;100.00
11710;BME280;5911;51.036;6.972;2022-10-31T00:46:13;101264.47;;;15.02;100.00
11710;BME280;5911;51.036;6.972;2022-10-31T00:48:41;101266.56;;;14.99;100.00
11710;BME280;5911;51.036;6.972;2022-10-31T00:51:09;101282.50;;;14.99;100.00
11710;BME280;5911;51.036;6.972;2022-10-31T00:53:38;101285.28;;;14.97;100.00
11710;BME280;5911;51.036;6.972;2022-10-31T00:56:08;101292.28;;;14.98;100.00
11710;BME280;5911;51.036;6.972;2022-10-31T00:58:36;101288.78;;;14.98;100.00
11710;BME280;5911;51.036;6.972;2022-10-31T01:01:05;101276.91;;;14.92;100.00
11710;BME280;5911;51.036;6.972;2022-10-31T01:03:34;101288.78;;;14.98;100.00
11710;BME280;5911;51.036;6.972;2022-10-31T01:06:04;101296.75;;;14.98;100.00
11710;BME280;5911;51.036;6.972;2022-10-31T01:08:32;101289.34;;;14.92;100.00
11710;BME280;5911;51.036;6.972;2022-10-31T01:11:04;101288.13;;;14.96;100.00
11710;BME280;5911;51.036;6.972;2022-10-31T01:13:34;101293.44;;;14.96;100.00
11710;BME280;5911;51.036;6.972;2022-10-31T01:16:04;101280.81;;;14.98;100.00
11710;BME280;5911;51.036;6.972;2022-10-31T01:18:33;101272.00;;;14.97;100.00
11710;BME280;5911;51.036;6.972;2022-10-31T01:21:03;101270.19;;;14.98;100.00
11710;BME280;5911;51.036;6.972;2022-10-31T01:23:32;101273.41;;;14.92;100.00
11710;BME280;5911;51.036;6.972;2022-10-31T01:26:02;101269.09;;;14.91;100.00
11710;BME280;5911;51.036;6.972;2022-10-31T01:28:31;101262.09;;;14.90;100.00
11710;BME280;5911;51.036;6.972;2022-10-31T01:31:03;101262.09;;;14.90;100.00
11710;BME280;5911;51.036;6.972;2022-10-31T01:33:33;101260.28;;;14.90;100.00
11710;BME280;5911;51.036;6.972;2022-10-31T01:36:10;101253.13;;;14.91;100.00
11710;BME280;5911;51.036;6.972;2022-10-31T01:38:38;101251.47;;;14.90;100.00
11710;BME280;5911;51.036;6.972;2022-10-31T01:41:06;101249.91;;;14.87;100.00
11710;BME280;5911;51.036;6.972;2022-10-31T01:43:47;101239.41;;;14.86;100.00
11710;BME280;5911;51.036;6.972;2022-10-31T01:46:19;101240.84;;;14.90;100.00
11710;BME280;5911;51.036;6.972;2022-10-31T01:48:48;101233.13;;;14.87;100.00
11710;BME280;5911;51.036;6.972;2022-10-31T01:51:21;101227.13;;;14.85;100.00
11710;BME280;5911;51.036;6.972;2022-10-31T01:53:51;101237.47;;;14.88;100.00
11710;BME280;5911;51.036;6.972;2022-10-31T01:56:22;101224.47;;;14.85;100.00
11710;BME280;5911;51.036;6.972;2022-10-31T01:58:51;101225.56;;;14.82;100.00
11710;BME280;5911;51.036;6.972;2022-10-31T02:01:21;101229.38;;;14.80;100.00
11710;BME280;5911;51.036;6.972;2022-10-31T02:03:49;101226.72;;;14.80;100.00
11710;BME280;5911;51.036;6.972;2022-10-31T02:06:26;101225.16;;;14.77;100.00
11710;BME280;5911;51.036;6.972;2022-10-31T02:08:57;101227.09;;;14.75;100.00
11710;BME280;5911;51.036;6.972;2022-10-31T02:11:27;101219.28;;;14.73;100.00
11710;BME280;5911;51.036;6.972;2022-10-31T02:13:55;101222.91;;;14.72;100.00
11710;BME280;5911;51.036;6.972;2022-10-31T02:16:25;101220.38;;;14.71;100.00
11710;BME280;5911;51.036;6.972;2022-10-31T02:18:54;101224.84;;;14.70;100.00
11710;BME280;5911;51.036;6.972;2022-10-31T02:21:29;101226.94;;;14.67;100.00
11710;BME280;5911;51.036;6.972;2022-10-31T02:27:11;101235.63;;;14.69;100.00
11710;BME280;5911;51.036;6.972;2022-10-31T02:29:57;101230.72;;;14.64;100.00
11710;BME280;5911;51.036;6.972;2022-10-31T02:32:41;101234.22;;;14.65;100.00
11710;BME280;5911;51.036;6.972;2022-10-31T02:35:15;101248.06;;;14.68;100.00
11710;BME280;5911;51.036;6.972;2022-10-31T02:37:50;101247.22;;;14.68;100.00
11710;BME280;5911;51.036;6.972;2022-10-31T02:40:25;101244.41;;;14.69;100.00
11710;BME280;5911;51.036;6.972;2022-10-31T02:43:19;101243.19;;;14.73;100.00
11710;BME280;5911;51.036;6.972;2022-10-31T02:45:51;101241.91;;;14.68;100.00
11710;BME280;5911;51.036;6.972;2022-10-31T02:48:27;101238.28;;;14.69;100.00
11710;BME280;5911;51.036;6.972;2022-10-31T02:50:57;101244.16;;;14.72;100.00
11710;BME280;5911;51.036;6.972;2022-10-31T02:53:26;101245.97;;;14.72;100.00
11710;BME280;5911;51.036;6.972;2022-10-31T02:55:58;101244.41;;;14.69;100.00
11710;BME280;5911;51.036;6.972;2022-10-31T02:58:30;101237.72;;;14.65;100.00
11710;BME280;5911;51.036;6.972;2022-10-31T03:01:24;101242.75;;;14.68;100.00
11710;BME280;5911;51.036;6.972;2022-10-31T03:04:07;101241.75;;;14.69;100.00
11710;BME280;5911;51.036;6.972;2022-10-31T03:06:45;101246.38;;;14.67;100.00
11710;BME280;5911;51.036;6.972;2022-10-31T03:09:22;101249.19;;;14.66;100.00
11710;BME280;5911;51.036;6.972;2022-10-31T03:11:58;101243.31;;;14.62;100.00
11710;BME280;5911;51.036;6.972;2022-10-31T03:14:34;101238.13;;;14.61;100.00
11710;BME280;5911;51.036;6.972;2022-10-31T03:17:09;101239.91;;;14.51;100.00
11710;BME280;5911;51.036;6.972;2022-10-31T03:19:43;101249.53;;;14.52;100.00
11710;BME280;5911;51.036;6.972;2022-10-31T03:22:16;101255.28;;;14.47;100.00
11710;BME280;5911;51.036;6.972;2022-10-31T03:24:46;101250.25;;;14.54;100.00
11710;BME280;5911;51.036;6.972;2022-10-31T03:27:19;101249.97;;;14.47;100.00
11710;BME280;5911;51.036;6.972;2022-10-31T03:29:49;101247.19;;;14.49;100.00
11710;BME280;5911;51.036;6.972;2022-10-31T03:32:21;101252.19;;;14.52;100.00
11710;BME280;5911;51.036;6.972;2022-10-31T03:34:55;101255.97;;;14.49;100.00
11710;BME280;5911;51.036;6.972;2022-10-31T03:37:26;101254.03;;;14.51;100.00
11710;BME280;5911;51.036;6.972;2022-10-31T03:39:56;101241.88;;;14.49;100.00
11710;BME280;5911;51.036;6.972;2022-10-31T03:42:29;101251.09;;;14.54;100.00
11710;BME280;5911;51.036;6.972;2022-10-31T03:45:00;101242.84;;;14.48;100.00
11710;BME280;5911;51.036;6.972;2022-10-31T03:47:29;101247.69;;;14.42;100.00
11710;BME280;5911;51.036;6.972;2022-10-31T03:50:00;101242.97;;;14.46;100.00
11710;BME280;5911;51.036;6.972;2022-10-31T03:52:33;101242.13;;;14.46;100.00
11710;BME280;5911;51.036;6.972;2022-10-31T03:55:07;101249.50;;;14.42;100.00
11710;BME280;5911;51.036;6.972;2022-10-31T03:57:39;101242.41;;;14.42;100.00
11710;BME280;5911;51.036;6.972;2022-10-31T04:00:12;101232.63;;;14.43;100.00
11710;BME280;5911;51.036;6.972;2022-10-31T04:02:50;101230.09;;;14.41;100.00
11710;BME280;5911;51.036;6.972;2022-10-31T04:05:25;101226.16;;;14.36;100.00
11710;BME280;5911;51.036;6.972;2022-10-31T04:07:59;101243.72;;;14.37;100.00
11710;BME280;5911;51.036;6.972;2022-10-31T04:10:31;101244.44;;;14.39;100.00
11710;BME280;5911;51.036;6.972;2022-10-31T04:13:03;101233.22;;;14.26;100.00
11710;BME280;5911;51.036;6.972;2022-10-31T04:15:43;101243.69;;;14.27;100.00
11710;BME280;5911;51.036;6.972;2022-10-31T04:18:12;101248.75;;;14.30;100.00
11710;BME280;5911;51.036;6.972;2022-10-31T04:20:41;101232.25;;;14.27;100.00
11710;BME280;5911;51.036;6.972;2022-10-31T04:23:18;101234.50;;;14.31;100.00
11710;BME280;5911;51.036;6.972;2022-10-31T04:25:48;101238.72;;;14.34;100.00
11710;BME280;5911;51.036;6.972;2022-10-31T04:28:16;101232.25;;;14.27;100.00
11710;BME280;5911;51.036;6.972;2022-10-31T04:30:50;101239.09;;;14.29;100.00
11710;BME280;5911;51.036;6.972;2022-10-31T04:33:18;101228.63;;;14.28;100.00
11710;BME280;5911;51.036;6.972;2022-10-31T04:35:48;101231.97;;;14.30;100.00
11710;BME280;5911;51.036;6.972;2022-10-31T04:38:15;101221.63;;;14.27;100.00
11710;BME280;5911;51.036;6.972;2022-10-31T04:40:44;101224.59;;;14.33;100.00
11710;BME280;5911;51.036;6.972;2022-10-31T04:43:31;101228.22;;;14.32;100.00
11710;BME280;5911;51.036;6.972;2022-10-31T04:46:00;101223.75;;;14.33;100.00
11710;BME280;5911;51.036;6.972;2022-10-31T04:48:28;101221.09;;;14.33;100.00
11710;BME280;5911;51.036;6.972;2022-10-31T04:51:00;101219.69;;;14.29;100.00
11710;BME280;5911;51.036;6.972;2022-10-31T04:53:28;101222.78;;;14.34;100.00
11710;BME280;5911;51.036;6.972;2022-10-31T04:56:24;101220.97;;;14.34;100.00
11710;BME280;5911;51.036;6.972;2022-10-31T04:58:58;101222.06;;;14.32;100.00
11710;BME280;5911;51.036;6.972;2022-10-31T05:01:30;101220.13;;;14.34;100.00
11710;BME280;5911;51.036;6.972;2022-10-31T05:03:59;101180.25;;;14.15;100.00
11710;BME280;5911;51.036;6.972;2022-10-31T05:06:29;101204.91;;;14.36;100.00
11710;BME280;5911;51.036;6.972;2022-10-31T05:08:57;101186.41;;;14.25;100.00
11710;BME280;5911;51.036;6.972;2022-10-31T05:11:25;101201.56;;;14.34;100.00
11710;BME280;5911;51.036;6.972;2022-10-31T05:13:57;101189.66;;;14.38;100.00
11710;BME280;5911;51.036;6.972;2022-10-31T05:17:03;101188.69;;;14.39;100.00
11710;BME280;5911;51.036;6.972;2022-10-31T05:20:10;101190.81;;;14.35;100.00
11710;BME280;5911;51.036;6.972;2022-10-31T05:22:58;101183.69;;;14.36;100.00
11710;BME280;5911;51.036;6.972;2022-10-31T05:25:28;101183.94;;;14.33;100.00
11710;BME280;5911;51.036;6.972;2022-10-31T05:27:56;101186.16;;;14.28;100.00
11710;BME280;5911;51.036;6.972;2022-10-31T05:30:27;101200.00;;;14.31;100.00
11710;BME280;5911;51.036;6.972;2022-10-31T05:32:55;101191.91;;;14.33;100.00
11710;BME280;5911;51.036;6.972;2022-10-31T05:35:49;101192.44;;;14.27;100.00
11710;BME280;5911;51.036;6.972;2022-10-31T05:38:38;101190.50;;;14.29;100.00
11710;BME280;5911;51.036;6.972;2022-10-31T05:41:28;101192.19;;;14.30;100.00
11710;BME280;5911;51.036;6.972;2022-10-31T05:44:05;101182.53;;;14.29;100.00
11710;BME280;5911;51.036;6.972;2022-10-31T05:46:46;101176.38;;;14.28;100.00
11710;BME280;5911;51.036;6.972;2022-10-31T05:49:49;101183.75;;;14.25;100.00
11710;BME280;5911;51.036;6.972;2022-10-31T05:52:36;101187.94;;;14.18;100.00
11710;BME280;5911;51.036;6.972;2022-10-31T05:55:15;101186.13;;;14.18;100.00
11710;BME280;5911;51.036;6.972;2022-10-31T05:57:58;101182.78;;;14.16;100.00
11710;BME280;5911;51.036;6.972;2022-10-31T06:00:27;101179.41;;;14.14;100.00
11710;BME280;5911;51.036;6.972;2022-10-31T06:03:04;101179.81;;;14.09;100.00
11710;BME280;5911;51.036;6.972;2022-10-31T06:05:46;101193.06;;;14.09;100.00
11710;BME280;5911;51.036;6.972;2022-10-31T06:08:22;101189.31;;;14.12;100.00
11710;BME280;5911;51.036;6.972;2022-10-31T06:10:52;101184.00;;;14.12;100.00
11710;BME280;5911;51.036;6.972;2022-10-31T06:13:40;101184.84;;;14.13;100.00
11710;BME280;5911;51.036;6.972;2022-10-31T06:16:15;101179.69;;;14.11;100.00
11710;BME280;5911;51.036;6.972;2022-10-31T06:18:45;101179.69;;;14.11;100.00
11710;BME280;5911;51.036;6.972;2022-10-31T06:21:13;101185.81;;;14.12;100.00
11710;BME280;5911;51.036;6.972;2022-10-31T06:23:47;101182.19;;;14.13;100.00
11710;BME280;5911;51.036;6.972;2022-10-31T06:26:29;101170.75;;;14.12;100.00
11710;BME280;5911;51.036;6.972;2022-10-31T06:29:00;101180.50;;;14.12;100.00
11710;BME280;5911;51.036;6.972;2022-10-31T06:31:56;101186.22;;;14.07;100.00
11710;BME280;5911;51.036;6.972;2022-10-31T06:34:23;101192.22;;;14.09;100.00
11710;BME280;5911;51.036;6.972;2022-10-31T06:36:51;101197.53;;;14.09;100.00
11710;BME280;5911;51.036;6.972;2022-10-31T06:39:23;101167.47;;;13.89;100.00
11710;BME280;5911;51.036;6.972;2022-10-31T06:41:56;101178.81;;;14.01;100.00
11710;BME280;5911;51.036;6.972;2022-10-31T06:44:26;101187.47;;;14.03;100.00
11710;BME280;5911;51.036;6.972;2022-10-31T06:46:53;101177.38;;;13.97;100.00
11710;BME280;5911;51.036;6.972;2022-10-31T06:49:39;101191.66;;;14.05;100.00
11710;BME280;5911;51.036;6.972;2022-10-31T06:52:12;101188.88;;;14.07;100.00
11710;BME280;5911;51.036;6.972;2022-10-31T06:54:40;101180.06;;;14.06;100.00
11710;BME280;5911;51.036;6.972;2022-10-31T06:57:09;101189.31;;;14.12;100.00
11710;BME280;5911;51.036;6.972;2022-10-31T06:59:38;101187.63;;;14.11;100.00
11710;BME280;5911;51.036;6.972;2022-10-31T07:02:35;101173.78;;;14.07;100.00
11710;BME280;5911;51.036;6.972;2022-10-31T07:05:05;101159.78;;;13.96;100.00
11710;BME280;5911;51.036;6.972;2022-10-31T07:07:33;101189.63;;;14.19;100.00
11710;BME280;5911;51.036;6.972;2022-10-31T07:10:02;101191.31;;;14.20;100.00
11710;BME280;5911;51.036;6.972;2022-10-31T07:12:54;101178.31;;;14.17;100.00
11710;BME280;5911;51.036;6.972;2022-10-31T07:15:22;101194.13;;;14.28;100.00
11710;BME280;5911;51.036;6.972;2022-10-31T07:17:51;101187.44;;;14.33;100.00
11710;BME280;5911;51.036;6.972;2022-10-31T07:20:20;101193.16;;;14.38;100.00
11710;BME280;5911;51.036;6.972;2022-10-31T07:22:48;101193.06;;;14.40;100.00
11710;BME280;5911;51.036;6.972;2022-10-31T07:25:17;101200.63;;;14.45;100.00
11710;BME280;5911;51.036;6.972;2022-10-31T07:28:09;101176.97;;;14.32;100.00
11710;BME280;5911;51.036;6.972;2022-10-31T07:30:38;101197.13;;;14.44;100.00
11710;BME280;5911;51.036;6.972;2022-10-31T07:33:08;101187.16;;;14.36;100.00
11710;BME280;5911;51.036;6.972;2022-10-31T07:36:02;101200.22;;;14.49;100.00
11710;BME280;5911;51.036;6.972;2022-10-31T07:38:31;101211.56;;;14.51;100.00
11710;BME280;5911;51.036;6.972;2022-10-31T07:41:03;101200.50;;;14.46;100.00
11710;BME280;5911;51.036;6.972;2022-10-31T07:43:38;101224.28;;;14.57;100.00
11710;BME280;5911;51.036;6.972;2022-10-31T07:46:28;101220.66;;;14.58;100.00
11710;BME280;5911;51.036;6.972;2022-10-31T07:49:15;101220.38;;;14.61;100.00
11710;BME280;5911;51.036;6.972;2022-10-31T07:52:01;101218.69;;;14.60;100.00
11710;BME280;5911;51.036;6.972;2022-10-31T07:54:49;101213.13;;;14.63;100.00
11710;BME280;5911;51.036;6.972;2022-10-31T07:57:22;101204.88;;;14.66;100.00
11710;BME280;5911;51.036;6.972;2022-10-31T07:59:52;101205.56;;;14.68;100.00
11710;BME280;5911;51.036;6.972;2022-10-31T08:02:22;101208.66;;;14.73;100.00
11710;BME280;5911;51.036;6.972;2022-10-31T08:05:10;101205.88;;;14.75;100.00
11710;BME280;5911;51.036;6.972;2022-10-31T08:08:07;101195.25;;;14.65;100.00
11710;BME280;5911;51.036;6.972;2022-10-31T08:10:36;101216.09;;;14.80;100.00
11710;BME280;5911;51.036;6.972;2022-10-31T08:13:05;101209.78;;;14.81;100.00
11710;BME280;5911;51.036;6.972;2022-10-31T08:15:37;101210.63;;;14.81;100.00
11710;BME280;5911;51.036;6.972;2022-10-31T08:18:12;101199.19;;;14.81;100.00
11710;BME280;5911;51.036;6.972;2022-10-31T08:20:42;101200.56;;;14.85;100.00
11710;BME280;5911;51.036;6.972;2022-10-31T08:23:11;101187.13;;;14.76;100.00
11710;BME280;5911;51.036;6.972;2022-10-31T08:25:41;101191.59;;;14.86;100.00
11710;BME280;5911;51.036;6.972;2022-10-31T08:28:10;101191.59;;;14.86;100.00
11710;BME280;5911;51.036;6.972;2022-10-31T08:30:42;101187.28;;;14.85;100.00
11710;BME280;5911;51.036;6.972;2022-10-31T08:33:28;101190.38;;;14.90;100.00
11710;BME280;5911;51.036;6.972;2022-10-31T08:36:16;101194.44;;;14.94;100.00
11710;BME280;5911;51.036;6.972;2022-10-31T08:38:50;101166.59;;;14.78;100.00
11710;BME280;5911;51.036;6.972;2022-10-31T08:41:27;101192.47;;;14.96;100.00
11710;BME280;5911;51.036;6.972;2022-10-31T08:43:55;101188.66;;;14.98;100.00
11710;BME280;5911;51.036;6.972;2022-10-31T08:46:24;101194.41;;;15.03;100.00
11710;BME280;5911;51.036;6.972;2022-10-31T08:48:53;101187.16;;;15.05;100.00
11710;BME280;5911;51.036;6.972;2022-10-31T08:51:22;101182.69;;;15.06;100.00
11710;BME280;5911;51.036;6.972;2022-10-31T08:53:53;101181.44;;;15.10;100.00
11710;BME280;5911;51.036;6.972;2022-10-31T08:56:30;101169.50;;;15.14;100.00
11710;BME280;5911;51.036;6.972;2022-10-31T08:58:59;101139.59;;;15.02;100.00
11710;BME280;5911;51.036;6.972;2022-10-31T09:01:44;101168.97;;;15.20;100.00
11710;BME280;5911;51.036;6.972;2022-10-31T09:04:13;101175.94;;;15.21;100.00
11710;BME280;5911;51.036;6.972;2022-10-31T09:06:44;101172.88;;;15.26;100.00
11710;BME280;5911;51.036;6.972;2022-10-31T09:09:31;101166.00;;;15.33;100.00
11710;BME280;5911;51.036;6.972;2022-10-31T09:11:59;101169.22;;;15.36;100.00
11710;BME280;5911;51.036;6.972;2022-10-31T09:14:55;101161.81;;;15.40;100.00
11710;BME280;5911;51.036;6.972;2022-10-31T09:17:32;101161.66;;;15.41;100.00
11710;BME280;5911;51.036;6.972;2022-10-31T09:20:17;101161.66;;;15.41;100.00
11710;BME280;5911;51.036;6.972;2022-10-31T09:22:44;101156.03;;;15.44;100.00
11710;BME280;5911;51.036;6.972;2022-10-31T09:25:13;101160.50;;;15.54;100.00
11710;BME280;5911;51.036;6.972;2022-10-31T09:27:48;101150.00;;;15.52;100.00
11710;BME280;5911;51.036;6.972;2022-10-31T09:30:16;101139.38;;;15.52;100.00
11710;BME280;5911;51.036;6.972;2022-10-31T09:32:45;101132.22;;;15.62;100.00
11710;BME280;5911;51.036;6.972;2022-10-31T09:35:13;101148.19;;;15.72;100.00
11710;BME280;5911;51.036;6.972;2022-10-31T09:37:44;101138.06;;;15.75;100.00
11710;BME280;5911;51.036;6.972;2022-10-31T09:40:12;101142.94;;;15.80;100.00
11710;BME280;5911;51.036;6.972;2022-10-31T09:43:00;101140.00;;;15.83;100.00
11710;BME280;5911;51.036;6.972;2022-10-31T09:45:34;101132.88;;;15.83;100.00
11710;BME280;5911;51.036;6.972;2022-10-31T09:48:26;101133.56;;;15.86;100.00
11710;BME280;5911;51.036;6.972;2022-10-31T09:51:20;101127.78;;;15.90;100.00
11710;BME280;5911;51.036;6.972;2022-10-31T09:54:05;101128.44;;;16.02;100.00
11710;BME280;5911;51.036;6.972;2022-10-31T09:56:37;101108.00;;;16.02;100.00
11710;BME280;5911;51.036;6.972;2022-10-31T09:59:11;101121.16;;;16.22;100.00
11710;BME280;5911;51.036;6.972;2022-10-31T10:01:45;101116.31;;;16.35;100.00
11710;BME280;5911;51.036;6.972;2022-10-31T10:04:33;101110.88;;;16.54;100.00
11710;BME280;5911;51.036;6.972;2022-10-31T10:07:16;101104.75;;;16.71;100.00
11710;BME280;5911;51.036;6.972;2022-10-31T10:10:14;101102.38;;;16.86;100.00
11710;BME280;5911;51.036;6.972;2022-10-31T10:13:25;101097.41;;;17.09;100.00
11710;BME280;5911;51.036;6.972;2022-10-31T10:16:12;101087.16;;;17.22;100.00
11710;BME280;5911;51.036;6.972;2022-10-31T10:18:51;101087.56;;;17.35;100.00
11710;BME280;5911;51.036;6.972;2022-10-31T10:21:33;101082.13;;;17.45;100.00
11710;BME280;5911;51.036;6.972;2022-10-31T10:24:15;101081.09;;;17.64;100.00
11710;BME280;5911;51.036;6.972;2022-10-31T10:26:50;101086.03;;;17.84;100.00
11710;BME280;5911;51.036;6.972;2022-10-31T10:29:29;101090.91;;;18.05;100.00
11710;BME280;5911;51.036;6.972;2022-10-31T10:32:01;101092.00;;;18.28;100.00
11710;BME280;5911;51.036;6.972;2022-10-31T10:34:36;101081.81;;;18.40;100.00
11710;BME280;5911;51.036;6.972;2022-10-31T10:37:19;101079.66;;;18.52;100.00
11710;BME280;5911;51.036;6.972;2022-10-31T10:39:53;101065.97;;;18.39;100.00
11710;BME280;5911;51.036;6.972;2022-10-31T10:42:24;101059.59;;;18.15;100.00
11710;BME280;5911;51.036;6.972;2022-10-31T10:45:16;101044.84;;;18.03;100.00
11710;BME280;5911;51.036;6.972;2022-10-31T10:48:07;101040.88;;;18.07;100.00
11710;BME280;5911;51.036;6.972;2022-10-31T10:50:41;101048.06;;;18.15;100.00
11710;BME280;5911;51.036;6.972;2022-10-31T10:53:25;101050.44;;;18.26;100.00
11710;BME280;5911;51.036;6.972;2022-10-31T10:56:10;101047.91;;;18.24;100.00
11710;BME280;5911;51.036;6.972;2022-10-31T10:58:40;101012.16;;;18.09;100.00
11710;BME280;5911;51.036;6.972;2022-10-31T11:01:11;101008.00;;;18.07;100.00
11710;BME280;5911;51.036;6.972;2022-10-31T11:03:41;101021.22;;;18.16;100.00
11710;BME280;5911;51.036;6.972;2022-10-31T11:06:17;101010.84;;;18.21;100.00
11710;BME280;5911;51.036;6.972;2022-10-31T11:08:49;101008.53;;;18.26;100.00
11710;BME280;5911;51.036;6.972;2022-10-31T11:11:26;101019.22;;;18.26;100.00
11710;BME280;5911;51.036;6.972;2022-10-31T11:14:00;101002.84;;;18.21;100.00
11710;BME280;5911;51.036;6.972;2022-10-31T11:16:32;101025.72;;;18.24;100.00
11710;BME280;5911;51.036;6.972;2022-10-31T11:19:08;101023.53;;;18.19;100.00
11710;BME280;5911;51.036;6.972;2022-10-31T11:21:41;101031.06;;;18.24;100.00
11710;BME280;5911;51.036;6.972;2022-10-31T11:24:22;101021.56;;;18.30;100.00
11710;BME280;5911;51.036;6.972;2022-10-31T11:26:51;100995.81;;;18.20;100.00
11710;BME280;5911;51.036;6.972;2022-10-31T11:29:30;101009.88;;;18.39;100.00
11710;BME280;5911;51.036;6.972;2022-10-31T11:32:00;101005.53;;;18.46;100.00
11710;BME280;5911;51.036;6.972;2022-10-31T11:34:30;100963.47;;;18.32;100.00
11710;BME280;5911;51.036;6.972;2022-10-31T11:37:03;100992.34;;;18.52;100.00
11710;BME280;5911;51.036;6.972;2022-10-31T11:39:41;100995.00;;;18.52;100.00
11710;BME280;5911;51.036;6.972;2022-10-31T11:42:09;100992.66;;;18.49;100.00
11710;BME280;5911;51.036;6.972;2022-10-31T11:44:41;100992.84;;;18.48;100.00
11710;BME280;5911;51.036;6.972;2022-10-31T11:47:14;100979.31;;;18.41;100.00
11710;BME280;5911;51.036;6.972;2022-10-31T11:49:43;100971.78;;;18.37;100.00
11710;BME280;5911;51.036;6.972;2022-10-31T11:52:19;100970.47;;;18.33;100.00
11710;BME280;5911;51.036;6.972;2022-10-31T11:54:52;100960.81;;;18.32;100.00
11710;BME280;5911;51.036;6.972;2022-10-31T11:57:29;100956.47;;;18.31;100.00
11710;BME280;5911;51.036;6.972;2022-10-31T11:59:58;100957.13;;;18.33;100.00
11710;BME280;5911;51.036;6.972;2022-10-31T12:02:27;100954.94;;;18.36;100.00
11710;BME280;5911;51.036;6.972;2022-10-31T12:05:00;100956.78;;;18.36;100.00
11710;BME280;5911;51.036;6.972;2022-10-31T12:07:30;100946.91;;;18.36;100.00
11710;BME280;5911;51.036;6.972;2022-10-31T12:10:00;100942.25;;;18.38;100.00
11710;BME280;5911;51.036;6.972;2022-10-31T12:12:48;100939.59;;;18.46;100.00
11710;BME280;5911;51.036;6.972;2022-10-31T12:15:31;100929.75;;;18.47;100.00
11710;BME280;5911;51.036;6.972;2022-10-31T12:18:28;100926.06;;;18.48;100.00
11710;BME280;5911;51.036;6.972;2022-10-31T12:21:12;100931.75;;;18.45;100.00
11710;BME280;5911;51.036;6.972;2022-10-31T12:23:54;100924.88;;;18.42;100.00
11710;BME280;5911;51.036;6.972;2022-10-31T12:26:33;100915.72;;;18.45;100.00
11710;BME280;5911;51.036;6.972;2022-10-31T12:29:15;100908.69;;;18.44;100.00
11710;BME280;5911;51.036;6.972;2022-10-31T12:31:57;100903.03;;;18.47;100.00
11710;BME280;5911;51.036;6.972;2022-10-31T12:34:56;100896.00;;;18.46;100.00
11710;BME280;5911;51.036;6.972;2022-10-31T12:37:43;100896.00;;;18.46;100.00
11710;BME280;5911;51.036;6.972;2022-10-31T12:40:27;100896.00;;;18.46;100.00
11710;BME280;5911;51.036;6.972;2022-10-31T12:43:10;100886.16;;;18.46;100.00
11710;BME280;5911;51.036;6.972;2022-10-31T12:45:51;100882.47;;;18.47;100.00
11710;BME280;5911;51.036;6.972;2022-10-31T12:48:42;100876.78;;;18.50;100.00
11710;BME280;5911;51.036;6.972;2022-10-31T12:51:22;100862.44;;;18.43;100.00
11710;BME280;5911;51.036;6.972;2022-10-31T12:54:06;100853.25;;;18.46;100.00
11710;BME280;5911;51.036;6.972;2022-10-31T12:56:46;100849.75;;;18.45;100.00
11710;BME280;5911;51.036;6.972;2022-10-31T12:59:24;100851.59;;;18.45;100.00
11710;BME280;5911;51.036;6.972;2022-10-31T13:02:00;100837.22;;;18.46;100.00
11710;BME280;5911;51.036;6.972;2022-10-31T13:04:40;100803.03;;;18.33;100.00
11710;BME280;5911;51.036;6.972;2022-10-31T13:07:13;100827.72;;;18.43;100.00
11710;BME280;5911;51.036;6.972;2022-10-31T13:09:46;100816.88;;;18.37;100.00
11710;BME280;5911;51.036;6.972;2022-10-31T13:12:17;100811.69;;;18.43;100.00
11710;BME280;5911;51.036;6.972;2022-10-31T13:14:50;100807.00;;;18.45;100.00
11710;BME280;5911;51.036;6.972;2022-10-31T13:17:27;100806.84;;;18.47;100.00
11710;BME280;5911;51.036;6.972;2022-10-31T13:20:15;100795.50;;;18.45;100.00
11710;BME280;5911;51.036;6.972;2022-10-31T13:22:46;100783.16;;;18.36;100.00
11710;BME280;5911;51.036;6.972;2022-10-31T13:25:19;100767.13;;;18.36;100.00
11710;BME280;5911;51.036;6.972;2022-10-31T13:27:52;100795.31;;;18.46;100.00
11710;BME280;5911;51.036;6.972;2022-10-31T13:30:25;100780.97;;;18.47;100.00
11710;BME280;5911;51.036;6.972;2022-10-31T13:32:59;100778.28;;;18.47;100.00
11710;BME280;5911;51.036;6.972;2022-10-31T13:35:36;100776.09;;;18.51;100.00